METAR Data
IDs: Format: Raw Decoded Include TAF

Data at: 1949 UTC 23 Oct 2021

KBWI 231854Z 23008KT 10SM SCT042 SCT070 BKN090 20/09 A2994 RMK AO2 SLP138 T02000089
KBWI 231754Z 25011G16KT 10SM BKN037 BKN049 OVC085 19/09 A2995 RMK AO2 SLP140 T01890089 10200 20139 58019
KBWI 231654Z 19005KT 10SM FEW035 SCT050 18/09 A2997 RMK AO2 SLP148 T01830094
KBWI 231554Z 19004KT 10SM FEW035 SCT075 BKN090 17/09 A3000 RMK AO2 SLP159 T01720089
KBWI 231454Z 00000KT 10SM FEW035 BKN070 BKN090 17/08 A3000 RMK AO2 SLP159 T01670078 50009
KBWI 231354Z 00000KT 10SM BKN045 16/10 A3001 RMK AO2 SLP162 T01560100
KBWI 231254Z 04004KT 10SM FEW030 OVC060 14/10 A3000 RMK AO2 SLP157 T01440100
KBWI 231154Z 00000KT 10SM FEW035 BKN065 14/11 A2998 RMK AO2 SLP151 T01390106 10144 20117 53010
KBWI 231054Z 00000KT 10SM FEW036 SCT050 BKN090 14/10 A2996 RMK AO2 SLP145 T01390100
KBWI 230954Z 28003KT 10SM OVC050 13/11 A2996 RMK AO2 SLP145 T01330106
KBWI 230854Z 00000KT 10SM BKN055 OVC080 14/10 A2995 RMK AO2 SLP141 T01390100 53005
KBWI 230754Z 31003KT 10SM BKN060 BKN080 13/10 A2994 RMK AO2 SLP137 T01280100
KBWI 230654Z 00000KT 10SM FEW065 BKN085 13/09 A2994 RMK AO2 SLP137 T01330094
KBWI 230554Z 26003KT 10SM FEW060 BKN080 11/09 A2993 RMK AO2 SLP136 T01110094 10183 20106 56009
KBWI 230454Z 00000KT 10SM FEW085 12/09 A2994 RMK AO2 SLP137 T01220094 402220106
KBWI 230354Z 29003KT 10SM FEW085 12/10 A2995 RMK AO2 SLP140 T01220100
KBWI 230254Z 00000KT 10SM SCT060 SCT100 14/10 A2996 RMK AO2 SLP144 T01390100 53005
KBWI 230154Z 30003KT 10SM FEW060 FEW100 14/10 A2996 RMK AO2 SLP143 T01390100
KBWI 230054Z 02003KT 10SM FEW060 FEW100 18/09 A2994 RMK AO2 SLP139 T01780094
KBWI 222354Z 05006KT 10SM BKN065 BKN100 18/10 A2995 RMK AO2 SLP140 T01830100 10222 20183 53010
KBWI 222254Z VRB04KT 10SM BKN060 BKN100 19/09 A2993 RMK AO2 SLP134 T01890089
KBWI 222154Z 30003KT 10SM BKN060 BKN100 19/09 A2993 RMK AO2 SLP133 T01940089
KBWI 222054Z 30005KT 10SM BKN060 BKN100 20/08 A2992 RMK AO2 SLP130 T02000083 55002
KBWI 221954Z 30004KT 10SM BKN050 BKN100 21/08 A2991 RMK AO2 SLP129 T02060078
KBWI 221854Z 25006KT 10SM FEW055 SCT100 BKN250 22/07 A2992 RMK AO2 SLP129 T02170072
KBWI 221754Z 33005KT 10SM SCT065 BKN100 BKN250 21/08 A2992 RMK AO2 SLP130 T02110078 10217 20150 58013
KBWI 221654Z 28008KT 10SM FEW065 SCT090 BKN250 21/08 A2994 RMK AO2 SLP136 T02060078
KBWI 221554Z VRB04KT 10SM FEW060 SCT110 SCT250 20/07 A2996 RMK AO2 SLP142 T02000072
KBWI 221454Z 28010G19KT 10SM FEW065 FEW110 BKN230 19/08 A2996 RMK AO2 SLP145 T01940078 51014
KBWI 221354Z 30010KT 10SM FEW065 SCT230 18/08 A2995 RMK AO2 SLP140 T01780078
KBWI 221254Z 29008G17KT 10SM FEW100 SCT230 17/08 A2994 RMK AO2 SLP138 T01670083
KBWI 221154Z 28009KT 10SM FEW100 BKN230 16/08 A2992 RMK AO2 SLP130 T01560083 10200 20144 53018
KBWI 221054Z 30010KT 10SM FEW065 SCT100 16/09 A2989 RMK AO2 SLP121 ACC DSNT SE T01610089
KBWI 220954Z 29006KT 10SM FEW070 BKN095 16/13 A2987 RMK AO2 SLP116 T01610133
KBWI 220854Z 28005KT 10SM SCT070 SCT100 16/13 A2986 RMK AO2 SLP112 T01560128 51014
KBWI 220754Z COR 27006KT 10SM SCT110 17/13 A2985 RMK AO2 SLP107 T01720133